createdAt,value
2023-04-30T00:00:14.325Z,73.93
2023-04-30T00:01:17.307Z,74.29
2023-04-30T00:02:20.460Z,74.43
2023-04-30T00:03:24.824Z,74.98
2023-04-30T00:04:27.889Z,74.96
2023-04-30T00:05:31.055Z,74.53
2023-04-30T00:06:33.815Z,74.63
2023-04-30T00:07:36.638Z,74.69
2023-04-30T00:08:39.590Z,74.65
2023-04-30T00:09:42.392Z,74.64
2023-04-30T00:10:45.787Z,74.37
2023-04-30T00:11:48.677Z,74.41
2023-04-30T00:12:51.514Z,73.86
2023-04-30T00:13:54.514Z,73.94
2023-04-30T00:14:57.242Z,74.43
2023-04-30T00:15:59.974Z,73.89
2023-04-30T00:17:02.727Z,74.66
2023-04-30T00:18:07.288Z,74.76
2023-04-30T00:19:10.538Z,74.64
2023-04-30T00:20:13.991Z,74.70
2023-04-30T00:21:17.165Z,74.63
2023-04-30T00:22:20.031Z,74.71
2023-04-30T00:23:22.776Z,75.08
2023-04-30T00:24:25.375Z,75.01
2023-04-30T00:25:28.075Z,75.18
2023-04-30T00:26:30.986Z,75.60
2023-04-30T00:27:33.652Z,75.01
2023-04-30T00:28:36.554Z,75.49
2023-04-30T00:29:39.527Z,75.48
2023-04-30T00:30:42.250Z,75.65
2023-04-30T00:31:45.283Z,75.67
2023-04-30T00:32:48.049Z,75.84
2023-04-30T00:33:50.879Z,75.69
2023-04-30T00:34:53.645Z,75.75
2023-04-30T00:35:56.587Z,75.66
2023-04-30T00:36:59.702Z,76.06
2023-04-30T00:38:02.470Z,76.08
2023-04-30T00:39:05.386Z,76.47
2023-04-30T00:40:08.849Z,76.87
2023-04-30T00:41:12.143Z,76.84
2023-04-30T00:42:15.394Z,77.25
2023-04-30T00:43:18.121Z,77.54
2023-04-30T00:44:20.897Z,77.61
2023-04-30T00:45:23.657Z,77.23
2023-04-30T00:46:26.394Z,77.52
2023-04-30T00:47:29.244Z,77.40
2023-04-30T00:48:32.152Z,78.26
2023-04-30T00:49:35.213Z,78.07
2023-04-30T00:50:38.414Z,78.21
2023-04-30T00:51:44.549Z,77.50
2023-04-30T00:52:47.273Z,77.86
2023-04-30T00:53:49.944Z,78.00
2023-04-30T00:54:54.108Z,78.24
2023-04-30T00:55:57.237Z,78.46
2023-04-30T00:56:59.988Z,78.04
2023-04-30T00:58:03.257Z,78.20
2023-04-30T00:59:06.192Z,78.44
2023-04-30T01:00:14.174Z,78.59
2023-04-30T01:01:18.011Z,78.52
2023-04-30T01:02:21.505Z,78.05
2023-04-30T01:03:24.570Z,77.92
2023-04-30T01:04:28.952Z,77.45
2023-04-30T01:05:31.727Z,77.79
2023-04-30T01:06:34.692Z,78.04
2023-04-30T01:07:39.652Z,78.77
2023-04-30T01:08:42.539Z,78.66
2023-04-30T01:09:45.665Z,78.89
2023-04-30T01:11:06.182Z,78.79
2023-04-30T01:12:35.019Z,79.45
2023-04-30T01:13:51.214Z,79.49
2023-04-30T01:15:02.305Z,79.46
2023-04-30T01:16:11.305Z,79.49
2023-04-30T01:17:34.088Z,79.38
2023-04-30T01:18:44.603Z,79.00
2023-04-30T01:19:47.498Z,78.99
2023-04-30T01:20:59.333Z,79.01
2023-04-30T01:22:05.144Z,78.93
2023-04-30T01:23:36.721Z,79.01
2023-04-30T01:25:17.165Z,79.14
2023-04-30T01:26:44.662Z,79.36
2023-04-30T01:28:03.429Z,78.74
2023-04-30T01:29:07.129Z,78.46
2023-04-30T01:30:12.358Z,78.58
2023-04-30T01:31:18.225Z,79.08
2023-04-30T01:32:21.188Z,79.09
2023-04-30T01:33:23.868Z,79.09
2023-04-30T01:34:26.442Z,79.41
2023-04-30T01:36:14.551Z,79.53
2023-04-30T01:37:50.517Z,79.27
2023-04-30T01:38:56.465Z,79.51
2023-04-30T01:40:09.974Z,79.43
2023-04-30T01:41:28.087Z,79.01
2023-04-30T01:42:47.536Z,78.94
2023-04-30T01:44:16.567Z,79.37
2023-04-30T01:45:30.367Z,79.96
2023-04-30T01:46:33.413Z,79.50
2023-04-30T01:47:57.754Z,79.83
2023-04-30T01:49:01.282Z,80.03
2023-04-30T01:50:28.295Z,79.88
2023-04-30T01:51:46.115Z,79.85
2023-04-30T01:52:59.380Z,79.63
2023-04-30T01:54:17.104Z,80.10
2023-04-30T01:55:43.898Z,80.54
2023-04-30T01:57:07.058Z,80.47
2023-04-30T01:58:16.897Z,80.00
2023-04-30T01:59:20.613Z,79.80
2023-04-30T02:00:23.743Z,80.06
2023-04-30T02:01:27.747Z,80.18
2023-04-30T02:02:31.247Z,79.74
2023-04-30T02:03:34.198Z,80.32
2023-04-30T02:04:37.079Z,80.71
2023-04-30T02:05:39.890Z,80.60
2023-04-30T02:06:42.846Z,80.50
2023-04-30T02:07:49.050Z,80.81
2023-04-30T02:08:51.874Z,81.15
2023-04-30T02:09:55.328Z,80.77
2023-04-30T02:10:58.320Z,81.25
2023-04-30T02:12:01.044Z,81.56
2023-04-30T02:13:03.719Z,81.50
2023-04-30T02:14:06.631Z,81.46
2023-04-30T02:15:10.248Z,81.26
2023-04-30T02:16:12.904Z,81.14
2023-04-30T02:17:15.512Z,81.71
2023-04-30T02:18:18.237Z,81.14
2023-04-30T02:19:21.588Z,80.79
2023-04-30T02:20:24.481Z,80.52
2023-04-30T02:21:27.492Z,79.70
2023-04-30T02:22:30.369Z,80.09
2023-04-30T02:23:33.115Z,81.01
2023-04-30T02:24:35.810Z,80.21
2023-04-30T02:25:39.332Z,80.26
2023-04-30T02:26:42.169Z,80.33
2023-04-30T02:27:44.899Z,80.64
2023-04-30T02:28:47.904Z,80.77
2023-04-30T02:29:50.593Z,81.15
2023-04-30T02:30:53.305Z,81.08
2023-04-30T02:31:59.552Z,80.81
2023-04-30T02:33:03.695Z,80.70
2023-04-30T02:34:06.374Z,80.86
2023-04-30T02:35:09.219Z,80.89
2023-04-30T02:36:11.876Z,80.56
2023-04-30T02:37:14.932Z,80.48
2023-04-30T02:38:17.642Z,80.49
2023-04-30T02:39:20.719Z,80.76
2023-04-30T02:40:23.642Z,80.47
2023-04-30T02:41:26.907Z,80.29
2023-04-30T02:42:29.545Z,80.42
2023-04-30T02:43:32.391Z,80.65
2023-04-30T02:44:35.470Z,80.67
2023-04-30T02:45:38.149Z,80.82
2023-04-30T02:46:40.742Z,80.85
2023-04-30T02:47:43.382Z,80.98
2023-04-30T02:48:46.125Z,81.28
2023-04-30T02:49:49.185Z,81.21
2023-04-30T02:50:51.890Z,80.79
2023-04-30T02:51:55.476Z,80.57
2023-04-30T02:52:58.122Z,81.04
2023-04-30T02:54:00.902Z,80.80
2023-04-30T02:55:04.425Z,81.55
2023-04-30T02:56:08.252Z,81.73
2023-04-30T02:57:11.369Z,81.55
2023-04-30T02:58:14.141Z,82.17
2023-04-30T02:59:17.108Z,82.40
2023-04-30T03:00:20.167Z,83.02
2023-04-30T03:01:22.877Z,83.19
2023-04-30T03:02:26.037Z,83.52
2023-04-30T03:03:29.283Z,83.73
2023-04-30T03:04:32.060Z,83.72
2023-04-30T03:05:34.753Z,84.34
2023-04-30T03:06:38.250Z,84.32
2023-04-30T03:07:41.079Z,84.16
2023-04-30T03:08:43.892Z,83.78
2023-04-30T03:09:46.919Z,83.67
2023-04-30T03:10:50.148Z,84.20
2023-04-30T03:11:53.372Z,84.24
2023-04-30T03:12:56.148Z,86.53
2023-04-30T03:13:58.827Z,85.98
2023-04-30T03:15:01.664Z,85.78
2023-04-30T03:16:05.465Z,85.62
2023-04-30T03:17:08.144Z,85.89
2023-04-30T03:18:11.429Z,86.69
2023-04-30T03:19:14.207Z,86.78
2023-04-30T03:20:16.943Z,87.08
2023-04-30T03:21:19.626Z,86.62
2023-04-30T03:22:24.177Z,86.84
2023-04-30T03:23:28.394Z,86.54
2023-04-30T03:24:31.140Z,87.15
2023-04-30T03:25:33.842Z,87.89
2023-04-30T03:26:36.889Z,88.61
2023-04-30T03:27:39.575Z,90.07
2023-04-30T03:28:43.163Z,89.58
2023-04-30T03:29:46.315Z,89.99
2023-04-30T03:30:49.118Z,90.06
2023-04-30T03:31:52.621Z,89.66
2023-04-30T03:32:55.698Z,89.97
2023-04-30T03:33:58.428Z,90.50
2023-04-30T03:35:01.152Z,90.21
2023-04-30T03:36:04.094Z,90.52
2023-04-30T03:37:06.817Z,90.41
2023-04-30T03:38:09.728Z,89.92
2023-04-30T03:39:12.545Z,89.31
2023-04-30T03:40:15.133Z,89.96
2023-04-30T03:41:17.936Z,89.33
2023-04-30T03:42:21.355Z,89.64
2023-04-30T03:43:24.308Z,90.71
2023-04-30T03:44:27.284Z,90.98
2023-04-30T03:45:30.107Z,90.46
2023-04-30T03:46:32.795Z,90.09
2023-04-30T03:47:37.245Z,90.05
2023-04-30T03:48:40.093Z,90.78
2023-04-30T03:49:42.860Z,90.91
2023-04-30T03:50:46.585Z,91.49
2023-04-30T03:51:49.274Z,92.50
2023-04-30T03:52:52.222Z,93.12
2023-04-30T03:53:55.087Z,93.67
2023-04-30T03:54:58.133Z,93.87
2023-04-30T03:56:01.304Z,94.24
2023-04-30T03:57:22.764Z,93.89
2023-04-30T03:58:25.624Z,95.12
2023-04-30T03:59:28.378Z,94.87
2023-04-30T04:00:31.325Z,95.44
2023-04-30T04:01:34.274Z,96.93
2023-04-30T04:02:38.019Z,97.42
2023-04-30T04:03:41.133Z,96.53
2023-04-30T04:04:44.388Z,96.84
2023-04-30T04:05:47.157Z,97.37
2023-04-30T04:06:49.834Z,98.22
2023-04-30T04:07:52.545Z,98.60
2023-04-30T04:08:55.223Z,98.78
2023-04-30T04:09:57.886Z,98.52
2023-04-30T04:11:00.674Z,98.23
2023-04-30T04:12:03.576Z,97.78
2023-04-30T04:13:07.027Z,98.29
2023-04-30T04:14:09.693Z,98.45
2023-04-30T04:15:12.372Z,98.60
2023-04-30T04:16:15.288Z,98.02
2023-04-30T04:17:18.500Z,97.59
2023-04-30T04:18:21.320Z,97.54
2023-04-30T04:19:24.494Z,97.28
2023-04-30T04:20:27.597Z,97.29
2023-04-30T04:21:31.457Z,97.20
2023-04-30T04:22:34.025Z,97.12
2023-04-30T04:23:36.757Z,97.30
2023-04-30T04:24:39.478Z,96.14
2023-04-30T04:25:44.640Z,95.97
2023-04-30T04:26:48.102Z,95.99
2023-04-30T04:27:52.614Z,95.62
2023-04-30T04:28:55.637Z,95.36
2023-04-30T04:29:58.526Z,94.40
2023-04-30T04:31:01.159Z,95.01
2023-04-30T04:32:06.392Z,95.78
2023-04-30T04:33:09.423Z,95.80
2023-04-30T04:34:13.112Z,95.81
2023-04-30T04:35:16.751Z,95.91
2023-04-30T04:36:19.419Z,96.77
2023-04-30T04:37:22.935Z,96.08
2023-04-30T04:38:26.378Z,95.73
2023-04-30T04:39:29.175Z,95.68
2023-04-30T04:40:32.016Z,96.57
2023-04-30T04:41:35.897Z,96.82
2023-04-30T04:42:39.016Z,96.38
2023-04-30T04:43:42.644Z,97.12
2023-04-30T04:44:45.287Z,96.89
2023-04-30T04:45:48.428Z,96.59
2023-04-30T04:46:54.410Z,96.17
2023-04-30T04:47:57.244Z,95.95
2023-04-30T04:49:00.264Z,95.52
2023-04-30T04:50:03.325Z,96.52
2023-04-30T04:51:06.153Z,96.85
2023-04-30T04:52:09.170Z,97.09
2023-04-30T04:53:12.098Z,97.38
2023-04-30T04:54:14.675Z,97.68
2023-04-30T04:55:17.849Z,97.96
2023-04-30T04:56:20.579Z,97.90
2023-04-30T04:57:23.401Z,97.97
2023-04-30T04:58:27.051Z,97.51
2023-04-30T04:59:30.046Z,96.97
2023-04-30T05:00:34.104Z,97.64
2023-04-30T05:01:36.747Z,97.80
2023-04-30T05:02:39.799Z,98.35
2023-04-30T05:03:42.615Z,98.57
2023-04-30T05:04:47.335Z,97.29
2023-04-30T05:05:50.191Z,96.75
2023-04-30T05:06:53.053Z,97.07
2023-04-30T05:07:56.198Z,97.51
2023-04-30T05:08:59.146Z,96.82
2023-04-30T05:10:01.808Z,96.34
2023-04-30T05:11:04.827Z,95.83
2023-04-30T05:12:07.454Z,95.75
2023-04-30T05:13:10.118Z,95.75
2023-04-30T05:14:12.653Z,96.05
2023-04-30T05:15:15.538Z,96.37
2023-04-30T05:16:18.254Z,95.29
2023-04-30T05:17:21.237Z,94.42
2023-04-30T05:18:26.922Z,94.37
2023-04-30T05:19:29.709Z,94.75
2023-04-30T05:20:32.524Z,94.86
2023-04-30T05:21:35.772Z,95.14
2023-04-30T05:22:39.026Z,93.71
2023-04-30T05:23:41.704Z,94.45
2023-04-30T05:24:44.486Z,94.90
2023-04-30T05:25:52.277Z,94.83
2023-04-30T05:26:56.223Z,95.04
2023-04-30T05:27:58.976Z,94.02
2023-04-30T05:29:01.982Z,94.80
2023-04-30T05:30:05.339Z,95.85
2023-04-30T05:31:08.495Z,96.52
2023-04-30T05:32:11.614Z,95.63
2023-04-30T05:33:14.530Z,94.72
2023-04-30T05:34:17.433Z,93.97
2023-04-30T05:35:20.345Z,94.67
2023-04-30T05:36:22.999Z,94.75
2023-04-30T05:37:25.974Z,93.39
2023-04-30T05:38:29.153Z,93.60
2023-04-30T05:39:31.910Z,94.54
2023-04-30T05:40:34.758Z,94.89
2023-04-30T05:41:37.479Z,95.49
2023-04-30T05:42:41.099Z,95.55
2023-04-30T05:43:43.698Z,94.57
2023-04-30T05:44:46.567Z,94.36
2023-04-30T05:45:49.342Z,93.55
2023-04-30T05:46:52.201Z,94.09
2023-04-30T05:47:55.067Z,93.47
2023-04-30T05:48:57.776Z,93.50
2023-04-30T05:50:00.590Z,93.66
2023-04-30T05:51:03.330Z,93.84
2023-04-30T05:52:06.065Z,93.07
2023-04-30T05:53:08.842Z,92.33
2023-04-30T05:54:11.481Z,92.30
2023-04-30T05:55:14.207Z,91.21
2023-04-30T05:56:16.991Z,91.93
2023-04-30T05:57:19.940Z,91.99
2023-04-30T05:58:22.726Z,91.51
2023-04-30T05:59:26.136Z,90.98
2023-04-30T06:00:29.286Z,90.99
2023-04-30T06:01:32.471Z,89.84
2023-04-30T06:02:35.383Z,88.59
2023-04-30T06:03:38.595Z,87.56
2023-04-30T06:04:41.495Z,87.92
2023-04-30T06:05:44.595Z,87.44
2023-04-30T06:06:47.325Z,88.47
2023-04-30T06:07:50.043Z,88.46
2023-04-30T06:08:52.819Z,87.65
2023-04-30T06:09:56.807Z,87.53
2023-04-30T06:11:00.690Z,85.82
2023-04-30T06:12:04.076Z,85.51
2023-04-30T06:13:06.693Z,85.65
2023-04-30T06:14:10.511Z,86.48
2023-04-30T06:15:13.302Z,85.33
2023-04-30T06:16:16.338Z,84.66
2023-04-30T06:17:19.523Z,83.94
2023-04-30T06:18:22.330Z,84.54
2023-04-30T06:19:24.971Z,82.97
2023-04-30T06:20:27.743Z,83.80
2023-04-30T06:21:30.877Z,82.17
2023-04-30T06:22:34.583Z,81.10
2023-04-30T06:23:37.987Z,80.74
2023-04-30T06:24:40.623Z,80.03
2023-04-30T06:25:43.370Z,79.29
2023-04-30T06:26:48.046Z,78.18
2023-04-30T06:27:53.084Z,78.18
2023-04-30T06:28:56.215Z,78.40
2023-04-30T06:30:01.101Z,77.41
2023-04-30T06:31:04.109Z,77.07
2023-04-30T06:32:08.468Z,77.47
2023-04-30T06:33:11.484Z,77.51
2023-04-30T06:34:14.185Z,75.68
2023-04-30T06:35:16.880Z,75.24
2023-04-30T06:36:19.807Z,74.67
2023-04-30T06:37:22.468Z,73.83
2023-04-30T06:38:25.175Z,75.61
2023-04-30T06:39:27.789Z,74.86
2023-04-30T06:40:30.470Z,73.63
2023-04-30T06:41:33.214Z,72.86
2023-04-30T06:42:36.166Z,71.96
2023-04-30T06:43:38.895Z,72.37
2023-04-30T06:44:41.481Z,72.12
2023-04-30T06:45:44.209Z,71.00
2023-04-30T06:46:46.931Z,71.77
2023-04-30T06:47:49.829Z,72.08
2023-04-30T06:48:52.444Z,70.12
2023-04-30T06:49:55.478Z,69.43
2023-04-30T06:50:59.090Z,69.19
2023-04-30T06:52:01.966Z,69.12
2023-04-30T06:53:04.601Z,68.11
2023-04-30T06:54:08.322Z,68.09
2023-04-30T06:55:11.656Z,68.21
2023-04-30T06:56:14.318Z,68.53
2023-04-30T06:57:17.083Z,69.88
2023-04-30T06:58:19.983Z,68.73
2023-04-30T06:59:22.601Z,68.72
2023-04-30T07:00:25.397Z,68.40
2023-04-30T07:01:28.209Z,67.34
2023-04-30T07:02:31.090Z,66.96
2023-04-30T07:03:35.179Z,66.87
2023-04-30T07:04:38.040Z,67.46
2023-04-30T07:05:41.733Z,66.59
2023-04-30T07:06:44.340Z,64.96
2023-04-30T07:07:47.265Z,65.71
2023-04-30T07:08:49.949Z,64.94
2023-04-30T07:09:53.902Z,64.91
2023-04-30T07:10:57.212Z,65.24
2023-04-30T07:11:59.821Z,65.15
2023-04-30T07:13:03.193Z,64.23
2023-04-30T07:14:05.964Z,64.99
2023-04-30T07:15:08.974Z,64.68
2023-04-30T07:16:11.723Z,65.73
2023-04-30T07:17:15.125Z,66.15
2023-04-30T07:18:17.946Z,65.84
2023-04-30T07:19:20.916Z,65.60
2023-04-30T07:20:24.041Z,66.32
2023-04-30T07:21:28.081Z,65.26
2023-04-30T07:22:31.949Z,65.94
2023-04-30T07:23:35.098Z,66.01
2023-04-30T07:24:37.852Z,66.51
2023-04-30T07:25:40.571Z,66.01
2023-04-30T07:26:43.527Z,65.73
2023-04-30T07:27:46.513Z,64.62
2023-04-30T07:28:50.104Z,64.73
2023-04-30T07:29:53.272Z,64.67
2023-04-30T07:30:56.941Z,65.67
2023-04-30T07:31:59.528Z,63.84
2023-04-30T07:33:02.218Z,64.80
2023-04-30T07:34:04.955Z,63.83
2023-04-30T07:35:08.209Z,64.38
2023-04-30T07:36:11.624Z,63.56
2023-04-30T07:37:14.970Z,62.90
2023-04-30T07:38:19.464Z,62.54
2023-04-30T07:39:22.152Z,62.42
2023-04-30T07:40:34.911Z,61.96
2023-04-30T07:41:38.385Z,60.84
2023-04-30T07:42:42.417Z,62.10
2023-04-30T07:43:45.344Z,62.70
2023-04-30T07:44:49.031Z,62.59
2023-04-30T07:45:53.970Z,62.24
2023-04-30T07:46:56.585Z,61.86
2023-04-30T07:47:59.420Z,58.54
2023-04-30T07:49:02.678Z,59.38
2023-04-30T07:50:06.353Z,58.24
2023-04-30T07:51:09.167Z,57.86
2023-04-30T07:52:12.685Z,57.96
2023-04-30T07:53:15.441Z,58.31
2023-04-30T07:54:18.592Z,58.14
2023-04-30T07:55:21.317Z,57.71
2023-04-30T07:56:24.070Z,58.40
2023-04-30T07:57:27.140Z,57.64
2023-04-30T07:58:29.945Z,57.55
2023-04-30T07:59:33.186Z,56.87
2023-04-30T08:00:36.066Z,57.20
2023-04-30T08:01:38.734Z,56.42
2023-04-30T08:02:44.205Z,57.56
2023-04-30T08:03:47.281Z,55.53
2023-04-30T08:04:50.059Z,55.98
2023-04-30T08:05:53.001Z,56.02
2023-04-30T08:06:55.720Z,56.05
2023-04-30T08:07:58.712Z,55.95
2023-04-30T08:09:01.426Z,55.71
2023-04-30T08:10:04.369Z,55.72
2023-04-30T08:11:07.288Z,56.96
2023-04-30T08:12:10.660Z,55.47
2023-04-30T08:13:13.465Z,56.06
2023-04-30T08:14:16.129Z,56.84
2023-04-30T08:15:22.231Z,57.47
2023-04-30T08:16:25.029Z,57.21
2023-04-30T08:17:28.291Z,54.65
2023-04-30T08:18:32.414Z,55.27
2023-04-30T08:19:35.496Z,52.18
2023-04-30T08:20:38.734Z,52.00
2023-04-30T08:21:42.020Z,53.47
2023-04-30T08:22:45.799Z,52.79
2023-04-30T08:23:48.406Z,51.27
2023-04-30T08:24:51.229Z,50.62
2023-04-30T08:25:54.000Z,50.84
2023-04-30T08:26:56.745Z,51.68
2023-04-30T08:27:59.952Z,52.35
2023-04-30T08:29:02.816Z,51.54
2023-04-30T08:30:07.723Z,52.38
2023-04-30T08:31:10.716Z,52.50
2023-04-30T08:32:14.084Z,52.33
2023-04-30T08:33:17.255Z,52.68
2023-04-30T08:34:19.947Z,52.04
2023-04-30T08:35:23.116Z,49.96
2023-04-30T08:36:25.837Z,50.67
2023-04-30T08:37:28.936Z,47.81
2023-04-30T08:38:31.725Z,49.09
2023-04-30T08:39:34.823Z,48.05
2023-04-30T08:40:51.084Z,48.03
2023-04-30T08:42:03.840Z,48.00
2023-04-30T08:43:11.970Z,49.36
2023-04-30T08:44:14.570Z,49.33
2023-04-30T08:45:18.310Z,48.84
2023-04-30T08:46:23.493Z,48.37
2023-04-30T08:47:27.281Z,48.71
2023-04-30T08:48:31.314Z,47.32
2023-04-30T08:49:37.408Z,49.11
2023-04-30T08:50:40.572Z,46.57
2023-04-30T08:51:43.618Z,48.45
2023-04-30T08:52:46.397Z,48.64
2023-04-30T08:53:50.858Z,48.02
2023-04-30T08:54:55.190Z,47.61
2023-04-30T08:55:58.612Z,46.49
2023-04-30T08:57:01.720Z,46.30
2023-04-30T08:58:05.927Z,47.08
2023-04-30T08:59:08.979Z,46.80
2023-04-30T09:00:12.544Z,47.44
2023-04-30T09:01:16.044Z,47.35
2023-04-30T09:02:19.150Z,48.39
2023-04-30T09:03:24.024Z,48.39
2023-04-30T09:04:27.091Z,49.29
2023-04-30T09:05:29.891Z,50.14
2023-04-30T09:06:32.843Z,49.83
2023-04-30T09:07:37.707Z,49.26
2023-04-30T09:08:41.931Z,47.46
2023-04-30T09:09:44.589Z,46.23
2023-04-30T09:10:47.450Z,47.31
2023-04-30T09:11:50.408Z,46.92
2023-04-30T09:13:07.821Z,46.03
2023-04-30T09:14:10.814Z,47.97
2023-04-30T09:15:13.778Z,45.10
2023-04-30T09:16:16.672Z,44.18
2023-04-30T09:17:23.344Z,42.66
2023-04-30T09:18:26.378Z,44.27
2023-04-30T09:19:31.671Z,43.12
2023-04-30T09:20:35.515Z,41.79
2023-04-30T09:21:38.355Z,41.04
2023-04-30T09:22:42.459Z,42.50
2023-04-30T09:23:59.525Z,42.85
2023-04-30T09:25:02.405Z,43.14
2023-04-30T09:26:05.242Z,42.49
2023-04-30T09:27:20.115Z,43.01
2023-04-30T09:28:25.629Z,42.13
2023-04-30T09:29:37.930Z,41.54
2023-04-30T09:30:42.039Z,40.00
2023-04-30T09:31:47.388Z,42.08
2023-04-30T09:32:57.122Z,40.43
2023-04-30T09:34:00.496Z,39.09
2023-04-30T09:35:03.456Z,39.26
2023-04-30T09:36:10.049Z,39.03
2023-04-30T09:37:12.959Z,39.94
2023-04-30T09:38:32.953Z,40.23
2023-04-30T09:39:54.114Z,41.18
2023-04-30T09:41:00.291Z,39.82
2023-04-30T09:42:10.319Z,38.70
2023-04-30T09:43:13.352Z,39.44
2023-04-30T09:44:28.988Z,38.67
2023-04-30T09:45:41.652Z,39.30
2023-04-30T09:46:45.076Z,39.08
2023-04-30T09:47:47.922Z,39.75
2023-04-30T09:48:58.142Z,40.57
2023-04-30T09:50:01.785Z,41.33
2023-04-30T09:51:04.699Z,41.28
2023-04-30T09:52:08.507Z,38.62
2023-04-30T09:53:18.233Z,42.16
2023-04-30T09:54:23.671Z,42.75
2023-04-30T09:55:26.853Z,43.52
2023-04-30T09:56:31.240Z,42.50
2023-04-30T09:57:37.060Z,42.64
2023-04-30T09:58:44.714Z,43.22
2023-04-30T09:59:49.028Z,41.36
2023-04-30T10:00:53.880Z,39.57
2023-04-30T10:02:01.371Z,38.86
2023-04-30T10:03:08.620Z,37.86
2023-04-30T10:04:11.641Z,39.07
2023-04-30T10:05:14.552Z,40.90
2023-04-30T10:06:19.775Z,40.53
2023-04-30T10:07:26.583Z,40.86
2023-04-30T10:08:36.508Z,41.85
2023-04-30T10:09:45.157Z,43.06
2023-04-30T10:10:52.391Z,42.56
2023-04-30T10:11:57.552Z,41.74
2023-04-30T10:13:06.431Z,40.89
2023-04-30T10:14:17.869Z,43.07
2023-04-30T10:15:43.406Z,40.18
2023-04-30T10:16:58.233Z,38.26
2023-04-30T10:18:05.429Z,38.10
2023-04-30T10:19:15.295Z,39.62
2023-04-30T10:20:21.874Z,36.63
2023-04-30T10:21:27.088Z,32.29
2023-04-30T10:22:30.930Z,36.59
2023-04-30T10:23:34.083Z,36.70
2023-04-30T10:24:37.216Z,39.26
2023-04-30T10:25:41.142Z,38.11
2023-04-30T10:26:44.851Z,38.13
2023-04-30T10:27:47.526Z,38.09
2023-04-30T10:28:52.133Z,40.64
2023-04-30T10:29:56.115Z,41.87
2023-04-30T10:30:59.833Z,42.48
2023-04-30T10:32:05.434Z,43.02
2023-04-30T10:33:16.622Z,43.55
2023-04-30T10:34:28.835Z,44.11
2023-04-30T10:35:41.043Z,45.30
2023-04-30T10:37:00.684Z,42.75
2023-04-30T10:38:30.723Z,42.91
2023-04-30T10:39:37.886Z,40.78
2023-04-30T10:40:40.878Z,41.50
2023-04-30T10:41:47.513Z,40.36
2023-04-30T10:42:50.560Z,41.45
2023-04-30T10:43:59.491Z,41.77
2023-04-30T10:45:04.526Z,40.31
2023-04-30T10:46:08.881Z,39.62
2023-04-30T10:47:12.028Z,39.39
2023-04-30T10:48:16.297Z,39.34
2023-04-30T10:49:26.393Z,38.38
2023-04-30T10:50:30.552Z,38.70
2023-04-30T10:51:47.983Z,39.81
2023-04-30T10:53:03.861Z,40.30
2023-04-30T10:54:08.498Z,42.15
2023-04-30T10:55:11.516Z,42.15
2023-04-30T10:56:14.344Z,42.31
2023-04-30T10:57:20.335Z,42.43
2023-04-30T10:58:36.744Z,43.29
2023-04-30T10:59:45.451Z,42.96
2023-04-30T11:01:01.598Z,45.10
2023-04-30T11:02:04.638Z,43.98
2023-04-30T11:03:07.722Z,45.49
2023-04-30T11:04:11.663Z,43.43
2023-04-30T11:05:19.077Z,41.66
2023-04-30T11:06:26.789Z,42.57
2023-04-30T11:07:30.040Z,43.77
2023-04-30T11:08:37.966Z,44.45
2023-04-30T11:09:44.505Z,44.92
2023-04-30T11:11:05.598Z,45.40
2023-04-30T11:12:16.498Z,44.36
2023-04-30T11:13:19.994Z,43.15
2023-04-30T11:14:23.405Z,44.10
2023-04-30T11:15:28.002Z,44.78
2023-04-30T11:16:32.370Z,45.43
2023-04-30T11:17:35.284Z,45.63
2023-04-30T11:18:45.958Z,43.95
2023-04-30T11:19:53.654Z,45.17
2023-04-30T11:20:57.970Z,45.07
2023-04-30T11:22:03.744Z,44.94
2023-04-30T11:23:19.731Z,44.75
2023-04-30T11:24:50.828Z,44.46
2023-04-30T11:25:57.879Z,46.21
2023-04-30T11:27:07.491Z,45.96
2023-04-30T11:28:27.037Z,45.51
2023-04-30T11:29:32.164Z,45.22
2023-04-30T11:30:36.115Z,45.55
2023-04-30T11:31:38.840Z,45.47
2023-04-30T11:32:46.375Z,46.89
2023-04-30T11:33:49.461Z,46.67
2023-04-30T11:34:52.336Z,45.11
2023-04-30T11:35:59.448Z,44.87
2023-04-30T11:37:03.639Z,46.28
2023-04-30T11:38:08.770Z,44.73
2023-04-30T11:39:12.615Z,44.30
2023-04-30T11:40:15.899Z,43.67
2023-04-30T11:41:21.756Z,44.12
2023-04-30T11:42:24.595Z,43.86
2023-04-30T11:43:29.380Z,43.99
2023-04-30T11:44:32.145Z,43.65
2023-04-30T11:45:34.905Z,43.51
2023-04-30T11:46:37.783Z,44.80
2023-04-30T11:47:46.295Z,44.37
2023-04-30T11:48:49.896Z,45.37
2023-04-30T11:49:53.771Z,44.94
2023-04-30T11:50:56.942Z,46.14
2023-04-30T11:51:59.919Z,44.56
2023-04-30T11:53:04.160Z,44.73
2023-04-30T11:54:08.670Z,45.26
2023-04-30T11:55:16.758Z,45.13
2023-04-30T11:56:25.774Z,45.61
2023-04-30T11:57:35.626Z,44.67
2023-04-30T11:58:39.447Z,43.82
2023-04-30T11:59:44.872Z,43.82
2023-04-30T12:00:48.757Z,42.78
2023-04-30T12:01:51.476Z,40.71
2023-04-30T12:02:55.043Z,40.42
2023-04-30T12:03:58.009Z,38.98
2023-04-30T12:05:00.703Z,37.63
2023-04-30T12:06:03.831Z,38.89
2023-04-30T12:07:09.416Z,37.38
2023-04-30T12:08:13.144Z,36.51
2023-04-30T12:09:15.856Z,37.33
2023-04-30T12:10:22.258Z,35.37
2023-04-30T12:11:32.196Z,37.43
2023-04-30T12:12:37.350Z,37.40
2023-04-30T12:13:40.036Z,37.10
2023-04-30T12:14:43.307Z,37.39
2023-04-30T12:15:59.415Z,38.23
2023-04-30T12:17:02.334Z,38.98
2023-04-30T12:18:14.206Z,37.02
2023-04-30T12:19:17.946Z,37.18
2023-04-30T12:20:24.820Z,36.64
2023-04-30T12:21:29.224Z,37.33
2023-04-30T12:22:32.526Z,36.89
2023-04-30T12:23:35.356Z,36.89
2023-04-30T12:24:38.058Z,38.90
2023-04-30T12:25:44.091Z,39.18
2023-04-30T12:26:48.275Z,37.90
2023-04-30T12:27:53.357Z,37.83
2023-04-30T12:28:56.642Z,38.00
2023-04-30T12:30:08.997Z,37.30
2023-04-30T12:31:19.479Z,37.81
2023-04-30T12:32:22.869Z,38.80
2023-04-30T12:33:30.208Z,39.52
2023-04-30T12:34:33.893Z,40.76
2023-04-30T12:35:36.968Z,40.06
2023-04-30T12:36:44.269Z,40.89
2023-04-30T12:37:54.592Z,41.12
2023-04-30T12:39:09.004Z,41.98
2023-04-30T12:40:13.900Z,42.52
2023-04-30T12:41:17.704Z,42.49
2023-04-30T12:42:20.734Z,42.25
2023-04-30T12:43:23.281Z,41.87
2023-04-30T12:44:27.858Z,42.16
2023-04-30T12:45:44.922Z,40.50
2023-04-30T12:46:56.548Z,42.87
2023-04-30T12:47:59.290Z,41.90
2023-04-30T12:49:02.207Z,41.93
2023-04-30T12:50:12.816Z,41.22
2023-04-30T12:51:20.482Z,39.92
2023-04-30T12:52:26.504Z,40.87
2023-04-30T12:53:29.927Z,40.58
2023-04-30T12:54:36.267Z,41.25
2023-04-30T12:55:39.521Z,39.36
2023-04-30T12:57:01.677Z,40.41
2023-04-30T12:58:08.809Z,38.98
2023-04-30T12:59:16.937Z,38.84
2023-04-30T13:00:19.733Z,37.78
2023-04-30T13:01:25.773Z,37.06
2023-04-30T13:02:32.181Z,37.15
2023-04-30T13:03:35.489Z,37.79
2023-04-30T13:04:38.678Z,38.91
2023-04-30T13:05:42.215Z,39.38
2023-04-30T13:06:45.097Z,41.74
2023-04-30T13:07:50.327Z,39.74
2023-04-30T13:09:58.626Z,39.76
2023-04-30T13:11:01.560Z,39.72
2023-04-30T13:12:05.050Z,41.87
2023-04-30T13:13:07.972Z,40.87
2023-04-30T13:14:11.521Z,40.22
2023-04-30T13:15:14.279Z,40.17
2023-04-30T13:16:17.453Z,38.29
2023-04-30T13:17:20.357Z,39.26
2023-04-30T13:18:23.081Z,36.81
2023-04-30T13:19:26.531Z,37.88
2023-04-30T13:20:29.165Z,40.44
2023-04-30T13:21:33.243Z,42.19
2023-04-30T13:22:36.120Z,41.55
2023-04-30T13:23:51.096Z,41.33
2023-04-30T13:24:55.865Z,42.32
2023-04-30T13:25:58.527Z,41.95
2023-04-30T13:27:02.841Z,41.94
2023-04-30T13:28:05.752Z,39.24
2023-04-30T13:29:08.505Z,38.45
2023-04-30T13:30:12.094Z,39.08
2023-04-30T13:31:15.255Z,37.68
2023-04-30T13:32:18.378Z,38.07
2023-04-30T13:33:21.189Z,37.87
2023-04-30T13:34:23.992Z,38.04
2023-04-30T13:35:27.042Z,39.78
2023-04-30T13:36:29.871Z,39.85
2023-04-30T13:37:32.729Z,38.27
2023-04-30T13:38:35.628Z,38.69
2023-04-30T13:39:38.481Z,38.46
2023-04-30T13:40:41.333Z,37.87
2023-04-30T13:41:44.964Z,37.41
2023-04-30T13:42:49.077Z,38.12
2023-04-30T13:43:51.887Z,38.75
2023-04-30T13:44:54.616Z,36.89
2023-04-30T13:45:59.029Z,39.79
2023-04-30T13:47:02.138Z,39.56
2023-04-30T13:48:05.094Z,39.26
2023-04-30T13:49:07.857Z,39.82
2023-04-30T13:50:10.959Z,38.61
2023-04-30T13:51:14.571Z,38.21
2023-04-30T13:52:17.620Z,38.35
2023-04-30T13:53:20.407Z,37.95
2023-04-30T13:54:23.140Z,38.53
2023-04-30T13:55:25.867Z,37.40
2023-04-30T13:56:29.296Z,37.01